Time;durP1;ratioP1;P1;durP2;ratioP2;P2;SDS_P1;SDS_P2;PMS_P1;PMS_P2;Temp;Humidity;BMP_temperature;BMP_pressure;BME280_temperature;BME280_humidity;BME280_pressure;Samples;Min_cycle;Max_cycle;Signal;HPM_P1;HPM_P2
2021/12/13 00:01:14;;;;;;;5.18;4.10;;;;;;;14.04;74.26;101375.16;4843525;29;20032;-92
2021/12/13 00:03:59;;;;;;;5.00;3.53;;;;;;;13.92;73.77;101337.78;4859410;29;20133;-92
2021/12/13 00:06:50;;;;;;;5.10;3.90;;;;;;;13.91;74.11;101341.25;4843118;29;20061;-91
2021/12/13 00:09:20;;;;;;;6.88;4.22;;;;;;;13.85;74.07;101336.59;4837627;29;20037;-91
2021/12/13 00:11:52;;;;;;;4.60;4.15;;;;;;;13.57;73.92;101298.47;4844307;29;20037;-89
2021/12/13 00:14:28;;;;;;;5.20;4.13;;;;;;;13.89;73.62;101319.28;4843318;29;20025;-89
2021/12/13 00:17:03;;;;;;;6.13;3.92;;;;;;;13.91;73.98;101336.88;4841297;29;20116;-89
2021/12/13 00:19:39;;;;;;;5.15;3.90;;;;;;;13.83;74.09;101341.75;4818881;29;20065;-90
2021/12/13 00:22:12;;;;;;;5.13;3.78;;;;;;;14.02;74.10;101387.31;4837129;29;20030;-89
2021/12/13 00:24:42;;;;;;;5.82;4.00;;;;;;;13.73;73.62;101343.84;4821001;29;20121;-89
2021/12/13 00:27:22;;;;;;;5.07;4.00;;;;;;;13.74;74.00;101366.66;4842471;29;20044;-90
2021/12/13 00:30:10;;;;;;;4.47;3.55;;;;;;;13.95;74.32;101421.94;4841761;29;20065;-90
2021/12/13 00:32:47;;;;;;;5.63;3.80;;;;;;;13.81;73.94;101393.28;4818998;29;20044;-90
2021/12/13 00:35:19;;;;;;;5.03;3.92;;;;;;;13.96;74.23;101422.03;4858777;29;20055;-90
2021/12/13 00:37:49;;;;;;;4.90;4.03;;;;;;;13.98;73.84;101409.88;4826585;29;20423;-89
2021/12/13 00:43:42;;;;;;;7.70;3.78;;;;;;;14.01;73.79;101417.00;4857856;29;20050;-92
2021/12/13 00:46:12;;;;;;;4.75;3.58;;;;;;;13.80;73.99;101393.19;4828157;29;20037;-92
2021/12/13 00:49:02;;;;;;;4.43;3.20;;;;;;;13.94;74.00;101407.91;4842965;29;20037;-93
2021/12/13 00:51:52;;;;;;;5.05;3.88;;;;;;;13.92;74.30;101401.69;4830827;29;20037;-91
2021/12/13 00:54:36;;;;;;;5.65;3.83;;;;;;;13.78;74.21;101374.75;4823211;29;20042;-93
2021/12/13 00:57:37;;;;;;;5.38;3.97;;;;;;;13.71;74.38;101375.25;4821019;29;20033;-94
2021/12/13 01:00:40;;;;;;;5.28;3.60;;;;;;;13.98;73.89;101401.13;4858279;29;20046;-91
2021/12/13 01:03:14;;;;;;;5.78;3.65;;;;;;;13.80;73.92;101378.38;4828232;29;20052;-92
2021/12/13 01:05:41;;;;;;;4.35;3.70;;;;;;;13.93;73.96;101413.13;4848031;29;20029;-92
2021/12/13 01:11:44;;;;;;;5.82;3.83;;;;;;;13.36;74.12;101319.25;4853401;29;20048;-92
2021/12/13 01:14:55;;;;;;;5.90;3.95;;;;;;;13.90;73.83;101413.84;4841867;29;20522;-92
2021/12/13 01:18:02;;;;;;;5.80;3.33;;;;;;;13.93;73.86;101413.13;4842214;29;20129;-91
2021/12/13 01:21:01;;;;;;;4.75;3.60;;;;;;;13.88;73.89;101406.72;4819186;29;20469;-92
2021/12/13 01:23:43;;;;;;;5.20;3.70;;;;;;;13.58;74.08;101338.72;4829882;29;20042;-92
2021/12/13 01:26:29;;;;;;;6.35;3.72;;;;;;;13.82;74.21;101368.84;4820076;29;20090;-91
2021/12/13 01:29:03;;;;;;;6.00;3.75;;;;;;;13.90;73.76;101376.19;4845020;29;20057;-91
2021/12/13 01:31:54;;;;;;;5.97;3.80;;;;;;;13.82;74.35;101378.41;4827310;29;20449;-92
2021/12/13 01:34:22;;;;;;;4.60;3.72;;;;;;;13.82;74.33;101383.66;4827349;29;20128;-92
2021/12/13 01:37:17;;;;;;;4.95;3.53;;;;;;;13.77;74.31;101391.31;4828091;29;20033;-91
2021/12/13 01:39:52;;;;;;;4.63;3.20;;;;;;;13.64;74.17;101363.53;4836065;29;20503;-91
2021/12/13 01:42:29;;;;;;;5.00;3.45;;;;;;;13.63;74.24;101371.31;4818822;29;20034;-93
2021/12/13 01:45:23;;;;;;;4.68;3.70;;;;;;;13.80;73.75;101364.31;4830092;29;20049;-92
2021/12/13 01:47:49;;;;;;;5.35;3.35;;;;;;;13.58;73.72;101333.47;4840691;29;20049;-92
2021/12/13 01:50:29;;;;;;;4.40;3.45;;;;;;;13.59;74.16;101354.56;4846116;29;20030;-91
2021/12/13 01:59:06;;;;;;;4.40;3.53;;;;;;;13.60;74.33;101374.69;4886804;29;20029;-93
2021/12/13 02:01:32;;;;;;;4.18;3.38;;;;;;;13.54;73.95;101373.50;4856160;29;20022;-92
2021/12/13 02:04:29;;;;;;;4.88;3.55;;;;;;;13.72;73.98;101394.53;4834656;29;20033;-91
2021/12/13 02:07:02;;;;;;;4.43;3.60;;;;;;;13.68;73.48;101395.22;4844531;29;20066;-93
2021/12/13 02:09:34;;;;;;;7.65;3.75;;;;;;;13.34;73.93;101360.25;4827316;29;20036;-92
2021/12/13 02:12:02;;;;;;;4.43;3.40;;;;;;;13.47;73.84;101376.63;4826891;29;20046;-92
2021/12/13 02:17:49;;;;;;;4.32;3.72;;;;;;;13.60;73.68;101372.06;4847245;29;20412;-93
2021/12/13 02:20:36;;;;;;;3.55;3.08;;;;;;;13.75;73.40;101397.31;4829814;29;20030;-92
2021/12/13 02:23:05;;;;;;;4.32;3.40;;;;;;;13.55;73.49;101362.19;4845285;29;20090;-91
2021/12/13 02:25:51;;;;;;;4.55;3.55;;;;;;;13.43;73.25;101344.06;4832402;29;20030;-91
2021/12/13 02:28:21;;;;;;;4.68;3.55;;;;;;;13.62;73.47;101403.66;4845063;29;20096;-91
2021/12/13 02:31:04;;;;;;;4.45;3.20;;;;;;;13.48;74.05;101383.66;4826685;29;20041;-92
2021/12/13 02:33:46;;;;;;;6.00;3.63;;;;;;;13.57;73.84;101397.28;4827444;29;20038;-92
2021/12/13 02:36:28;;;;;;;4.53;3.38;;;;;;;13.47;73.78;101393.28;4819505;29;20076;-92
2021/12/13 02:39:13;;;;;;;4.80;3.50;;;;;;;13.67;73.91;101415.28;4829344;29;20489;-91
2021/12/13 02:41:45;;;;;;;4.03;3.35;;;;;;;13.42;73.78;101389.50;4845548;29;20022;-91
2021/12/13 02:44:26;;;;;;;4.15;3.28;;;;;;;13.47;73.93;101377.53;4829254;29;20132;-91
2021/12/13 02:47:21;;;;;;;5.47;3.70;;;;;;;13.68;73.76;101413.59;4826749;29;20038;-93
2021/12/13 02:50:05;;;;;;;3.70;3.08;;;;;;;13.62;73.53;101395.78;4823002;29;20044;-91
2021/12/13 02:52:33;;;;;;;4.90;3.60;;;;;;;13.51;73.52;101386.47;4843645;29;20037;-92
2021/12/13 02:55:09;;;;;;;5.00;3.50;;;;;;;13.52;73.81;101390.88;4828554;29;20161;-89
2021/12/13 02:57:45;;;;;;;4.10;3.22;;;;;;;13.54;74.04;101412.84;4844535;29;20029;-93
2021/12/13 03:00:54;;;;;;;4.30;3.55;;;;;;;13.57;74.13;101429.66;4829369;29;20061;-93
2021/12/13 03:04:10;;;;;;;6.70;3.60;;;;;;;13.62;73.90;101425.56;4843348;29;20093;-92
2021/12/13 03:07:03;;;;;;;3.45;3.08;;;;;;;13.47;73.61;101410.75;4844369;29;20025;-91
2021/12/13 03:09:37;;;;;;;4.80;3.45;;;;;;;13.44;73.90;101424.59;4862212;29;20037;-92
2021/12/13 03:12:05;;;;;;;3.47;2.85;;;;;;;13.58;74.13;101462.06;4830939;29;20496;-91
2021/12/13 03:14:44;;;;;;;4.25;3.30;;;;;;;13.32;73.63;101411.72;4826531;29;20042;-92
2021/12/13 03:17:34;;;;;;;4.93;3.50;;;;;;;13.34;73.74;101412.72;4823449;29;20029;-92
2021/12/13 03:20:43;;;;;;;3.70;2.80;;;;;;;13.61;73.61;101449.13;4833203;29;20423;-92
2021/12/13 03:23:41;;;;;;;4.35;3.20;;;;;;;13.59;73.83;101458.63;4850290;29;20556;-93
2021/12/13 03:26:27;;;;;;;5.22;3.25;;;;;;;13.61;73.30;101452.63;4842317;29;20049;-92
2021/12/13 03:29:14;;;;;;;4.60;3.40;;;;;;;13.40;73.81;101409.53;4844247;29;20037;-92
2021/12/13 03:32:22;;;;;;;5.13;3.28;;;;;;;13.60;73.47;101449.91;4838284;29;20033;-92
2021/12/13 03:35:21;;;;;;;3.37;2.97;;;;;;;13.54;73.94;101458.34;4841477;29;20527;-93
2021/12/13 03:38:00;;;;;;;4.65;3.20;;;;;;;13.39;74.00;101450.56;4828555;29;20041;-92
2021/12/13 03:40:35;;;;;;;4.68;3.40;;;;;;;13.34;73.60;101422.31;4829029;29;20045;-92
2021/12/13 03:43:08;;;;;;;4.50;3.10;;;;;;;13.43;73.76;101451.66;4815462;29;20059;-93
2021/12/13 03:45:41;;;;;;;6.93;3.72;;;;;;;13.56;73.39;101456.72;4844230;29;20093;-91
2021/12/13 03:48:31;;;;;;;3.65;3.13;;;;;;;13.50;74.22;101464.25;4833224;29;20038;-93
2021/12/13 03:51:36;;;;;;;4.22;3.17;;;;;;;13.45;74.04;101455.25;4839401;29;20047;-92
2021/12/13 03:54:13;;;;;;;4.18;3.20;;;;;;;13.32;74.10;101430.09;4843466;29;20496;-90
2021/12/13 03:56:56;;;;;;;3.92;3.20;;;;;;;13.33;74.10;101425.75;4831510;29;20033;-91
2021/12/13 03:59:27;;;;;;;4.03;3.40;;;;;;;13.51;73.67;101452.97;4825452;29;20041;-91
2021/12/13 04:02:03;;;;;;;4.30;3.05;;;;;;;13.31;73.81;101424.75;4828770;29;20026;-92
2021/12/13 04:04:49;;;;;;;4.05;3.08;;;;;;;13.16;74.55;101402.09;4828485;29;20030;-92
2021/12/13 04:07:32;;;;;;;2.72;2.53;;;;;;;13.20;73.82;101372.59;4820355;29;20034;-91
2021/12/13 04:10:41;;;;;;;5.32;3.30;;;;;;;13.51;73.82;101408.34;4825008;29;20572;-91
2021/12/13 04:13:32;;;;;;;4.50;3.00;;;;;;;13.52;73.70;101393.50;4843457;29;20519;-90
2021/12/13 04:16:34;;;;;;;5.22;3.05;;;;;;;13.43;74.07;101381.69;4837185;29;20129;-91
2021/12/13 04:19:06;;;;;;;4.82;3.53;;;;;;;13.50;73.47;101390.78;4852566;29;20045;-90
2021/12/13 04:21:52;;;;;;;3.55;2.72;;;;;;;13.44;73.65;101407.13;4846076;29;20033;-90
2021/12/13 04:24:31;;;;;;;3.83;3.03;;;;;;;13.39;73.70;101426.97;4837441;29;20113;-91
2021/12/13 04:27:08;;;;;;;4.60;3.17;;;;;;;13.32;73.88;101431.81;4840388;29;20112;-89
2021/12/13 04:29:39;;;;;;;4.07;3.10;;;;;;;13.17;74.35;101421.38;4847148;29;20033;-90
2021/12/13 04:32:15;;;;;;;4.18;3.30;;;;;;;13.00;73.91;101400.38;4827324;29;20041;-90
2021/12/13 04:34:42;;;;;;;4.55;3.40;;;;;;;13.38;73.91;101467.16;4842795;29;20034;-92
2021/12/13 04:37:18;;;;;;;4.70;3.40;;;;;;;13.04;73.76;101420.69;4828273;29;20415;-91
2021/12/13 04:40:09;;;;;;;3.92;2.88;;;;;;;13.30;74.08;101468.44;4820700;29;20074;-92
2021/12/13 04:43:07;;;;;;;3.70;2.90;;;;;;;13.42;73.46;101484.84;4838264;29;20042;-92
2021/12/13 04:45:34;;;;;;;5.40;3.28;;;;;;;13.33;73.65;101481.72;4810297;29;20107;-91
2021/12/13 04:48:12;;;;;;;4.43;3.03;;;;;;;13.27;74.00;101449.91;4815915;29;20508;-92
2021/12/13 04:51:14;;;;;;;3.90;2.97;;;;;;;13.31;73.93;101443.13;4824638;29;20038;-92
2021/12/13 04:53:49;;;;;;;4.57;3.50;;;;;;;13.03;73.73;101402.25;4792310;29;20044;-91
2021/12/13 04:56:53;;;;;;;4.20;2.90;;;;;;;13.36;73.64;101441.66;4807954;29;20066;-88
2021/12/13 04:59:23;;;;;;;4.13;2.83;;;;;;;13.18;73.82;101424.06;4843053;29;20029;-89
2021/12/13 05:01:53;;;;;;;4.60;3.40;;;;;;;13.09;73.87;101420.06;4863025;29;20086;-89
2021/12/13 05:04:23;;;;;;;3.00;2.70;;;;;;;13.16;73.66;101432.66;4839410;29;20511;-88
2021/12/13 05:07:02;;;;;;;4.03;3.03;;;;;;;12.84;73.83;101376.75;4825366;29;20088;-92
2021/12/13 05:09:43;;;;;;;3.38;2.75;;;;;;;13.26;73.77;101434.97;4810262;29;20044;-92
2021/12/13 05:12:14;;;;;;;5.20;3.30;;;;;;;13.23;73.74;101443.59;4818069;29;20034;-91
2021/12/13 05:14:49;;;;;;;4.22;3.20;;;;;;;13.25;73.82;101454.16;4813075;29;20034;-91
2021/12/13 05:17:29;;;;;;;4.43;3.25;;;;;;;13.16;73.79;101416.94;4811573;29;20075;-90
2021/12/13 05:20:23;;;;;;;4.20;3.05;;;;;;;13.28;73.93;101441.19;4814847;29;20069;-89
2021/12/13 05:23:13;;;;;;;3.88;3.13;;;;;;;13.27;73.69;101431.53;4816817;29;20150;-91
2021/12/13 05:25:43;;;;;;;3.75;2.97;;;;;;;13.30;73.73;101443.94;4841487;29;20041;-91
2021/12/13 05:28:31;;;;;;;3.20;2.90;;;;;;;13.21;73.74;101429.47;4804418;29;20027;-91
2021/12/13 05:31:00;;;;;;;3.78;3.03;;;;;;;13.26;73.31;101420.97;4843642;29;20042;-90
2021/12/13 05:33:36;;;;;;;3.67;3.00;;;;;;;13.12;73.45;101422.81;4843154;29;20033;-91
2021/12/13 05:36:08;;;;;;;3.85;3.30;;;;;;;13.06;74.01;101438.22;4809623;29;20037;-92
2021/12/13 05:38:43;;;;;;;4.07;3.10;;;;;;;13.06;73.80;101432.97;4809448;29;20579;-89
2021/12/13 05:41:19;;;;;;;4.18;3.13;;;;;;;12.80;74.33;101420.25;4821993;29;20026;-91
2021/12/13 05:43:53;;;;;;;3.67;3.33;;;;;;;12.84;74.00;101429.19;4805462;29;20088;-89
2021/12/13 05:46:26;;;;;;;3.65;2.88;;;;;;;13.08;74.06;101473.28;4827394;29;20032;-90
2021/12/13 05:49:00;;;;;;;4.30;3.30;;;;;;;13.09;74.00;101491.75;4844601;29;20090;-90
2021/12/13 05:51:34;;;;;;;3.85;2.90;;;;;;;13.07;74.14;101505.59;4830608;29;20038;-90
2021/12/13 05:54:26;;;;;;;4.57;3.22;;;;;;;13.06;73.97;101504.69;4828794;29;20041;-88
2021/12/13 06:00:24;;;;;;;4.80;3.33;;;;;;;13.00;73.31;101472.91;4850498;29;20412;-88
2021/12/13 06:03:19;;;;;;;4.03;3.30;;;;;;;13.15;73.66;101501.69;4846061;29;20038;-92
2021/12/13 06:06:10;;;;;;;3.40;3.00;;;;;;;13.16;73.54;101498.22;4824238;29;20038;-92
2021/12/13 06:08:49;;;;;;;4.43;3.13;;;;;;;13.04;73.74;101496.75;4844943;29;20032;-87
2021/12/13 06:11:33;;;;;;;3.60;3.30;;;;;;;12.91;74.03;101481.16;4822546;29;20097;-92
2021/12/13 06:14:02;;;;;;;4.20;3.25;;;;;;;13.01;73.84;101503.53;4833337;29;20101;-89
2021/12/13 06:16:39;;;;;;;4.60;3.20;;;;;;;13.02;73.86;101507.97;4862390;29;20082;-89
2021/12/13 06:19:30;;;;;;;3.13;2.78;;;;;;;13.03;74.05;101509.75;4829997;29;20037;-90
2021/12/13 06:22:20;;;;;;;4.15;2.92;;;;;;;12.80;73.35;101453.41;4844623;29;20504;-88
2021/12/13 06:25:06;;;;;;;4.28;3.58;;;;;;;12.77;73.97;101475.13;4829789;29;20044;-88
2021/12/13 06:27:51;;;;;;;4.55;3.60;;;;;;;12.97;73.67;101509.41;4844214;29;20491;-88
2021/12/13 06:30:24;;;;;;;5.25;3.15;;;;;;;12.99;73.85;101518.28;4843801;29;20044;-88
2021/12/13 06:33:05;;;;;;;3.97;3.10;;;;;;;12.90;73.68;101505.56;4832145;29;20041;-91
2021/12/13 06:35:37;;;;;;;5.97;3.00;;;;;;;12.95;73.83;101511.97;4841362;29;20037;-88
2021/12/13 06:38:23;;;;;;;4.38;3.20;;;;;;;12.92;74.19;101517.03;4857200;29;20036;-90
2021/12/13 06:41:12;;;;;;;3.83;3.10;;;;;;;13.00;73.71;101525.34;4843246;29;20042;-90
2021/12/13 06:43:42;;;;;;;4.20;3.38;;;;;;;12.96;73.56;101518.09;4828199;29;20516;-90
2021/12/13 06:46:34;;;;;;;5.20;3.30;;;;;;;13.00;73.88;101534.09;4831623;29;20022;-90
2021/12/13 06:49:09;;;;;;;3.97;3.10;;;;;;;12.55;73.71;101485.19;4839689;29;20026;-89
2021/12/13 06:51:43;;;;;;;3.95;3.15;;;;;;;12.89;73.84;101555.25;4848454;29;20032;-89
2021/12/13 06:54:36;;;;;;;4.38;3.13;;;;;;;12.74;74.80;101561.44;4851621;29;20042;-88
2021/12/13 06:57:11;;;;;;;4.63;3.33;;;;;;;12.86;73.90;101542.88;4819021;29;20102;-88
2021/12/13 06:59:52;;;;;;;4.18;3.40;;;;;;;12.65;74.21;101518.97;4847442;29;20034;-88
2021/12/13 07:02:40;;;;;;;4.70;3.25;;;;;;;12.82;74.40;101557.53;4850005;29;20041;-89
2021/12/13 07:05:08;;;;;;;4.53;3.35;;;;;;;12.62;74.01;101524.94;4838966;29;20661;-89
2021/12/13 07:08:07;;;;;;;4.30;3.22;;;;;;;12.81;74.10;101549.59;4859849;29;20245;-87
2021/12/13 07:10:41;;;;;;;3.95;3.22;;;;;;;12.81;74.23;101560.97;4830457;29;20121;-89
2021/12/13 07:13:27;;;;;;;4.32;3.20;;;;;;;12.58;73.86;101506.34;4842626;29;20076;-89
2021/12/13 07:15:58;;;;;;;3.85;3.20;;;;;;;12.84;73.78;101569.00;4828227;29;20040;-89
2021/12/13 07:18:53;;;;;;;4.78;3.38;;;;;;;12.75;74.42;101560.63;4846313;29;20077;-91
2021/12/13 07:22:05;;;;;;;3.72;3.25;;;;;;;12.75;74.28;101568.47;4835347;29;20030;-91
2021/12/13 07:28:04;;;;;;;4.30;3.40;;;;;;;12.82;73.98;101565.38;4842674;29;20116;-92
2021/12/13 07:30:36;;;;;;;3.85;2.90;;;;;;;12.70;74.13;101546.38;4839233;29;20033;-92
2021/12/13 07:33:11;;;;;;;3.90;3.20;;;;;;;12.79;73.97;101572.19;4817384;29;20037;-92
2021/12/13 07:35:48;;;;;;;4.40;3.30;;;;;;;12.72;73.99;101563.09;4841835;29;20042;-91
2021/12/13 07:38:19;;;;;;;4.10;3.30;;;;;;;12.78;74.06;101568.69;4844517;29;20033;-93
2021/12/13 07:41:32;;;;;;;4.60;3.45;;;;;;;12.81;73.69;101570.56;4845013;29;20522;-94
2021/12/13 07:43:57;;;;;;;4.47;3.10;;;;;;;12.75;73.82;101573.72;4835690;29;20544;-92
2021/12/13 07:46:30;;;;;;;4.60;3.20;;;;;;;12.75;74.04;101570.22;4828863;29;20033;-90
2021/12/13 07:49:09;;;;;;;4.20;3.45;;;;;;;12.45;73.85;101533.53;4829245;29;20037;-91
2021/12/13 07:52:30;;;;;;;4.15;3.20;;;;;;;12.74;73.83;101590.28;4843742;29;20128;-92
2021/12/13 07:55:30;;;;;;;4.38;3.35;;;;;;;12.76;73.89;101593.91;4857175;29;20503;-92
2021/12/13 07:57:59;;;;;;;4.47;3.45;;;;;;;12.22;73.91;101517.38;4862051;29;20041;-91
2021/12/13 08:00:31;;;;;;;3.95;3.35;;;;;;;12.00;73.69;101488.09;4840931;29;20037;-93
2021/12/13 08:03:09;;;;;;;3.83;3.20;;;;;;;12.71;73.65;101607.53;4846761;29;20029;-91
2021/12/13 08:05:47;;;;;;;5.28;3.55;;;;;;;12.48;73.81;101570.38;4842267;29;20030;-92
2021/12/13 08:08:52;;;;;;;5.03;3.80;;;;;;;12.72;73.86;101605.00;4827414;29;20168;-93
2021/12/13 08:11:59;;;;;;;5.00;3.70;;;;;;;12.61;73.88;101591.28;4843497;29;20033;-91
2021/12/13 08:14:42;;;;;;;4.50;3.67;;;;;;;12.71;74.04;101611.06;4797857;29;20045;-92
2021/12/13 08:17:27;;;;;;;6.28;3.85;;;;;;;12.40;74.21;101575.19;4812711;29;20034;-92
2021/12/13 08:20:07;;;;;;;4.80;3.63;;;;;;;12.55;73.45;101582.13;4836800;29;20037;-92
2021/12/13 08:22:41;;;;;;;6.95;3.78;;;;;;;12.66;73.77;101604.66;4828295;29;20042;-92
2021/12/13 08:25:15;;;;;;;4.72;3.55;;;;;;;12.74;73.29;101615.56;4843015;29;20037;-93
2021/12/13 08:27:53;;;;;;;6.57;4.20;;;;;;;12.57;73.52;101601.47;4820234;29;20441;-93
2021/12/13 08:30:29;;;;;;;5.93;3.88;;;;;;;12.41;73.82;101570.84;4837047;29;20033;-91
2021/12/13 08:33:24;;;;;;;5.00;3.58;;;;;;;12.62;73.92;101619.28;4847890;29;20039;-92
2021/12/13 08:36:04;;;;;;;5.43;4.13;;;;;;;12.59;73.80;101615.56;4843334;29;20049;-92
2021/12/13 08:38:47;;;;;;;6.07;3.85;;;;;;;12.62;73.83;101613.13;4842396;29;20416;-93
2021/12/13 08:41:38;;;;;;;5.45;4.13;;;;;;;12.60;73.26;101602.56;4828577;29;20480;-93
2021/12/13 08:44:15;;;;;;;5.25;3.70;;;;;;;12.61;73.48;101612.25;4838022;29;20053;-93
2021/12/13 08:47:03;;;;;;;6.57;4.68;;;;;;;12.66;73.19;101620.38;4822554;29;20037;-92
2021/12/13 08:49:43;;;;;;;;;;;;;;;12.78;72.93;101621.09;4859933;29;20040;-92
2021/12/13 08:55:26;;;;;;;4.75;3.53;;;;;;;12.75;73.29;101623.53;4857389;29;20132;-91
2021/12/13 08:58:14;;;;;;;5.68;4.00;;;;;;;12.51;73.38;101619.44;4839963;29;20053;-91
2021/12/13 09:00:51;;;;;;;4.57;4.00;;;;;;;12.67;73.35;101629.13;4831350;29;20034;-90
2021/12/13 09:03:41;;;;;;;6.25;4.00;;;;;;;12.68;73.06;101626.59;4848368;29;20060;-90
2021/12/13 09:06:12;;;;;;;5.40;3.88;;;;;;;12.56;73.71;101628.50;4839405;29;20041;-90
2021/12/13 09:08:45;;;;;;;6.00;3.88;;;;;;;12.63;73.45;101628.03;4843204;29;20116;-91
2021/12/13 09:11:24;;;;;;;4.97;3.60;;;;;;;12.63;73.43;101635.91;4822360;29;20064;-91
2021/12/13 09:17:45;;;;;;;4.45;3.60;;;;;;;12.68;72.81;101610.88;4848049;29;20061;-91
2021/12/13 09:20:22;;;;;;;4.45;3.67;;;;;;;12.64;72.93;101616.75;4842065;29;20030;-90
2021/12/13 09:22:56;;;;;;;5.55;4.30;;;;;;;12.55;73.07;101590.00;4817481;29;20038;-91
2021/12/13 09:25:41;;;;;;;4.75;3.53;;;;;;;12.67;72.89;101593.34;4839959;29;20065;-90
2021/12/13 09:28:27;;;;;;;6.15;4.00;;;;;;;12.48;73.81;101585.22;4815148;29;20073;-91
2021/12/13 09:31:21;;;;;;;4.82;3.90;;;;;;;12.56;73.54;101590.09;4830090;29;20030;-92
2021/12/13 09:34:10;;;;;;;4.75;3.63;;;;;;;12.65;73.11;101597.59;4833302;29;20033;-91
2021/12/13 09:36:41;;;;;;;4.60;3.50;;;;;;;12.27;73.01;101546.44;4836004;29;20113;-92
2021/12/13 09:39:23;;;;;;;5.15;4.03;;;;;;;12.50;73.09;101589.72;4843822;29;20018;-91
2021/12/13 09:42:15;;;;;;;5.90;4.20;;;;;;;12.55;73.05;101601.41;4827954;29;20078;-92
2021/12/13 09:44:55;;;;;;;6.70;3.92;;;;;;;12.39;73.06;101580.34;4831743;29;20054;-91
2021/12/13 09:47:28;;;;;;;5.20;3.90;;;;;;;12.49;72.82;101589.63;4827421;29;20048;-92
2021/12/13 09:50:00;;;;;;;5.70;3.65;;;;;;;12.52;73.29;101608.16;4825267;29;20401;-90
2021/12/13 09:52:44;;;;;;;5.55;3.60;;;;;;;12.61;73.07;101604.38;4844624;29;20041;-92
2021/12/13 09:55:13;;;;;;;5.32;3.85;;;;;;;12.62;72.97;101602.66;4822769;29;20090;-92
2021/12/13 09:58:04;;;;;;;4.90;3.83;;;;;;;12.43;73.40;101590.19;4843656;29;20038;-90
2021/12/13 10:00:35;;;;;;;5.90;3.90;;;;;;;12.11;73.01;101523.69;4828090;29;20050;-91
2021/12/13 10:03:24;;;;;;;4.65;3.55;;;;;;;12.45;73.48;101596.41;4838214;29;20440;-90
2021/12/13 10:06:00;;;;;;;5.97;3.88;;;;;;;12.15;73.52;101532.63;4844846;29;20125;-92
2021/12/13 10:08:35;;;;;;;6.13;3.97;;;;;;;12.52;73.09;101590.72;4830687;29;20526;-91
2021/12/13 10:11:27;;;;;;;4.40;3.53;;;;;;;12.43;73.08;101591.06;4827236;29;20425;-92
2021/12/13 10:13:56;;;;;;;4.28;3.53;;;;;;;12.42;73.22;101577.88;4860493;29;20496;-91
2021/12/13 10:16:28;;;;;;;5.00;3.83;;;;;;;12.48;73.22;101599.22;4853730;29;20492;-92
2021/12/13 10:19:41;;;;;;;4.72;3.72;;;;;;;12.47;73.10;101599.13;4858225;29;20038;-90
2021/12/13 10:22:31;;;;;;;7.35;3.80;;;;;;;12.48;73.25;101588.72;4841635;29;20037;-91
2021/12/13 10:25:30;;;;;;;4.80;3.70;;;;;;;12.39;73.16;101588.19;4844967;29;20068;-90
2021/12/13 10:27:57;;;;;;;4.30;3.63;;;;;;;12.21;72.97;101546.06;4812303;29;20034;-91
2021/12/13 10:30:52;;;;;;;5.03;3.92;;;;;;;12.06;73.11;101529.47;4840316;29;20029;-91
2021/12/13 10:33:23;;;;;;;4.97;3.65;;;;;;;12.36;73.20;101585.38;4851916;29;20038;-91
2021/12/13 10:36:01;;;;;;;4.18;3.65;;;;;;;12.05;73.14;101530.28;4858914;29;20036;-91
2021/12/13 10:38:45;;;;;;;4.35;3.60;;;;;;;12.52;72.43;101592.44;4842726;29;20030;-91
2021/12/13 10:41:29;;;;;;;3.97;3.58;;;;;;;12.36;72.33;101553.94;4860684;29;20564;-92
2021/12/13 10:43:59;;;;;;;5.35;4.10;;;;;;;12.47;72.59;101586.94;4842400;29;20106;-85
2021/12/13 10:46:34;;;;;;;4.45;3.75;;;;;;;12.41;72.81;101586.56;4840828;29;20029;-91
2021/12/13 10:49:15;;;;;;;4.53;3.63;;;;;;;12.27;72.54;101554.31;4819661;29;20484;-91
2021/12/13 10:51:56;;;;;;;5.88;4.35;;;;;;;12.37;72.86;101590.72;4844332;29;20036;-93
2021/12/13 10:54:43;;;;;;;5.57;3.88;;;;;;;12.30;72.93;101587.66;4829013;29;20522;-91
2021/12/13 10:57:32;;;;;;;4.88;3.88;;;;;;;12.40;72.60;101597.84;4833143;29;20068;-91
2021/12/13 11:00:03;;;;;;;4.95;3.85;;;;;;;12.03;72.54;101532.81;4826056;29;20038;-91
2021/12/13 11:02:39;;;;;;;5.38;4.10;;;;;;;12.35;72.89;101591.44;4839516;29;20126;-92
2021/12/13 11:05:22;;;;;;;5.30;3.90;;;;;;;12.42;72.58;101599.75;4832969;29;20428;-93
2021/12/13 11:08:02;;;;;;;5.88;4.35;;;;;;;12.21;72.76;101575.81;4839640;29;20738;-92
2021/12/13 11:10:56;;;;;;;6.07;3.75;;;;;;;12.28;72.12;101568.31;4819960;29;20164;-92
2021/12/13 11:13:58;;;;;;;5.47;4.10;;;;;;;12.36;72.96;101588.91;4811404;29;20094;-92
2021/12/13 11:16:30;;;;;;;5.30;4.00;;;;;;;12.09;72.62;101546.25;4829082;29;20412;-93
2021/12/13 11:22:44;;;;;;;5.28;3.60;;;;;;;12.45;72.68;101591.19;4842896;29;20045;-92
2021/12/13 11:25:17;;;;;;;5.13;3.45;;;;;;;12.36;72.38;101581.06;4833212;29;20072;-92
2021/12/13 11:31:45;;;;;;;5.05;3.83;;;;;;;12.38;72.92;101576.81;4861000;29;20579;-93
2021/12/13 11:34:49;;;;;;;5.00;3.90;;;;;;;12.35;72.47;101579.25;4836842;29;20420;-92
2021/12/13 11:37:57;;;;;;;5.72;4.13;;;;;;;12.34;72.55;101585.31;4850619;29;20120;-92
2021/12/13 11:41:01;;;;;;;5.10;3.90;;;;;;;12.36;72.79;101578.44;4829383;29;20038;-91
2021/12/13 11:43:56;;;;;;;4.40;3.83;;;;;;;12.17;72.65;101539.78;4842363;29;20476;-91
2021/12/13 11:47:09;;;;;;;5.55;4.00;;;;;;;12.41;72.54;101576.97;4844589;29;20037;-92
2021/12/13 11:50:13;;;;;;;5.38;3.50;;;;;;;12.36;72.26;101583.69;4837904;29;20534;-92
2021/12/13 11:52:51;;;;;;;5.28;3.88;;;;;;;12.16;72.72;101550.16;4835661;29;20041;-92
2021/12/13 11:59:19;;;;;;;5.75;4.43;;;;;;;12.26;72.69;101583.03;4867082;29;20048;-92
2021/12/13 12:02:03;;;;;;;6.65;4.10;;;;;;;12.19;72.87;101579.13;4843977;29;20037;-89
2021/12/13 12:05:10;;;;;;;5.10;4.10;;;;;;;12.31;72.52;101577.25;4848980;29;20097;-90
2021/12/13 12:08:14;;;;;;;5.10;3.97;;;;;;;12.27;72.76;101593.59;4841285;29;20185;-90
2021/12/13 12:11:17;;;;;;;5.78;4.40;;;;;;;12.30;72.72;101592.91;4854685;29;20112;-91
2021/12/13 12:14:05;;;;;;;5.15;4.32;;;;;;;12.32;72.18;101591.25;4835413;29;20055;-89
2021/12/13 12:16:36;;;;;;;5.72;4.45;;;;;;;12.32;72.43;101593.84;4825340;29;20026;-90
2021/12/13 12:19:03;;;;;;;5.85;4.38;;;;;;;12.15;72.11;101566.66;4836980;29;20573;-90
2021/12/13 12:21:34;;;;;;;5.68;4.13;;;;;;;12.31;72.49;101595.56;4858935;29;20037;-89
2021/12/13 12:24:23;;;;;;;6.10;4.55;;;;;;;12.07;72.24;101554.84;4828299;29;20033;-90
2021/12/13 12:27:16;;;;;;;5.65;4.35;;;;;;;12.35;71.92;101596.69;4843977;29;20071;-90
2021/12/13 12:29:47;;;;;;;6.40;4.40;;;;;;;12.10;72.52;101547.16;4847688;29;20067;-90
2021/12/13 12:32:37;;;;;;;5.57;4.20;;;;;;;12.33;72.33;101582.59;4833791;29;20033;-91
2021/12/13 12:35:14;;;;;;;4.80;4.05;;;;;;;12.13;71.85;101552.59;4839313;29;20485;-90
2021/12/13 12:38:03;;;;;;;;;;;;;;;12.37;72.05;101584.56;4852595;29;20116;-89
2021/12/13 12:40:35;;;;;;;5.22;4.10;;;;;;;12.22;72.59;101585.47;4831383;29;19912;-89
2021/12/13 12:43:12;;;;;;;7.60;4.43;;;;;;;12.28;72.00;101565.72;4859001;29;20026;-87
2021/12/13 12:46:00;;;;;;;6.75;4.70;;;;;;;12.22;72.15;101577.59;4842756;29;20052;-90
2021/12/13 12:48:34;;;;;;;6.03;4.43;;;;;;;12.13;72.61;101557.84;4840194;29;20030;-90
2021/12/13 12:51:08;;;;;;;6.72;4.82;;;;;;;12.00;72.63;101532.59;4834158;29;20033;-91
2021/12/13 12:53:48;;;;;;;6.78;4.78;;;;;;;12.00;72.28;101537.84;4824433;29;20121;-90
2021/12/13 12:56:19;;;;;;;7.07;5.18;;;;;;;11.90;72.95;101548.59;4839802;29;20061;-89
2021/12/13 12:58:49;;;;;;;7.03;5.25;;;;;;;12.10;72.49;101579.47;4814207;29;20072;-89
2021/12/13 13:01:23;;;;;;;6.07;4.63;;;;;;;12.02;72.89;101580.72;4853624;29;20038;-88
2021/12/13 13:03:49;;;;;;;8.07;5.07;;;;;;;12.04;72.97;101575.59;4823624;29;20037;-88
2021/12/13 13:06:22;;;;;;;6.35;4.65;;;;;;;11.81;73.13;101536.69;4835015;29;20033;-89
2021/12/13 13:08:54;;;;;;;6.50;4.97;;;;;;;11.77;72.62;101526.84;4842426;29;20033;-89
2021/12/13 13:11:43;;;;;;;6.63;4.75;;;;;;;11.96;72.96;101548.97;4827261;29;20044;-89
2021/12/13 13:14:22;;;;;;;7.22;4.85;;;;;;;11.73;73.16;101545.78;4836111;29;20120;-90
2021/12/13 13:16:54;;;;;;;7.10;4.90;;;;;;;11.74;72.53;101518.81;4821951;29;20033;-90